Flight Track Log - Related Links

Times and Time Zones

All times are in EDT time to prevent confusion due to time zone crossing. See the AAL2345 flight status page for this flight to view local times or setup timezone preferences in your user account.

Time Position Orientation Groundspeed Altitude Reporting Facility
EDT Latitude Longitude Course Direction KTS MPH feet Rate Location/Type
Sat 06:38:28 PM 41.9500 -87.9167 253° West 189 217 1,800  Level Chicago TRACON
Sat 06:39:16 PM 41.9000 -87.9500 206° Southwest 220 253 3,800 2,451 Climbing Chicago TRACON
Sat 06:40:00 PM 41.8861 -88.3030 255° West  Level FlightAware Approximate
Sat 06:40:50 PM 41.8719 -88.0719 253° West 253 291 7,600  Level Chicago Center
Sat 06:41:00 PM 41.8438 -88.4313 255° West  Level FlightAware Approximate
Sat 06:41:51 PM 41.8711 -88.1808 269° West 293 337 10,000  Level Chicago Center
Sat 06:42:00 PM 41.8149 -88.5670 254° West  Level FlightAware Approximate
Sat 06:42:53 PM 41.8647 -88.3492 267° West 390 449 12,400  Level Chicago Center
Sat 06:43:00 PM 41.7850 -88.7022 253° West  Level FlightAware Approximate
Sat 06:43:55 PM 41.8561 -88.4944 265° West 396 456 15,400  Level Chicago Center
Sat 06:44:56 PM 41.8164 -88.6397 250° West 416 479 17,800 2,195 Climbing Chicago Center
Sat 06:45:58 PM 41.7789 -88.7894 251° West 426 490 19,900 2,049 Climbing Chicago Center
Sat 06:46:59 PM 41.7417 -88.9442 252° West 439 505 22,000 2,195 Climbing Chicago Center
Sat 06:48:01 PM 41.6967 -89.1342 252° West 448 516 24,400 1,984 Climbing Chicago Center
Sat 06:49:03 PM 41.6581 -89.2961 252° West 461 531 26,100 1,756 Climbing Chicago Center
Sat 06:50:04 PM 41.6181 -89.4581 252° West 464 534 28,000 1,854 Climbing Chicago Center
Sat 06:51:06 PM 41.5794 -89.6142 252° West 459 528 29,900 1,659 Climbing Chicago Center
Sat 06:52:07 PM 41.5406 -89.7708 252° West 451 519 31,400 1,024 Climbing Chicago Center
Sat 06:53:09 PM 41.5014 -89.9272 252° West 448 516 32,000 290 Climbing Chicago Center
Sat 06:54:11 PM 41.4550 -90.1139 252° West 447 514 32,000  Level Chicago Center
Sat 06:55:12 PM 41.4153 -90.2706 251° West 448 516 32,000  Level Chicago Center
Sat 06:56:14 PM 41.3756 -90.4283 252° West 451 519 32,000  Level Chicago Center
Sat 06:57:15 PM 41.3333 -90.5872 251° West 456 525 32,000  Level Chicago Center
Sat 06:58:17 PM 41.2681 -90.7286 238° Southwest 454 522 32,000  Level Chicago Center
Sat 06:59:19 PM 41.1894 -90.8597 231° Southwest 455 524 32,000  Level Chicago Center
Sat 07:00:20 PM 41.1117 -90.9908 232° Southwest 454 522 32,000  Level Chicago Center
Sat 07:01:22 PM 41.0194 -91.1456 232° Southwest 448 516 32,000  Level Chicago Center
Sat 07:02:23 PM 40.9428 -91.2731 232° Southwest 445 512 32,000  Level Chicago Center
Sat 07:03:25 PM 40.8731 -91.3878 231° Southwest 438 504 32,000  Level Chicago Center
Sat 07:04:26 PM 40.7978 -91.5128 232° Southwest 438 504 32,000  Level Chicago Center
Sat 07:05:28 PM 40.7078 -91.6617 231° Southwest 437 503 32,000 293 Level Chicago Center
Sat 07:06:29 PM 40.6331 -91.7856 232° Southwest 435 501 32,600 829 Climbing Chicago Center
Sat 07:07:31 PM 40.5583 -91.9075 231° Southwest 432 497 33,700 683 Climbing Chicago Center
Sat 07:08:32 PM 40.4822 -92.0289 231° Southwest 432 497 34,000 155 Climbing Chicago Center
Sat 07:09:27 PM 40.4069 -92.1531 231° Southwest 435 501 34,000  Level Kansas City Center
Sat 07:09:34 PM 40.4069 -92.1531 231° Southwest 436 502 34,000  Level Chicago Center
Sat 07:10:28 PM 40.3300 -92.2764 231° Southwest 436 502 34,000  Level Kansas City Center
Sat 07:11:30 PM 40.2592 -92.3900 231° Southwest 435 501 34,000  Level Kansas City Center
Sat 07:12:31 PM 40.1728 -92.5278 231° Southwest 438 504 34,000  Level Kansas City Center
Sat 07:13:33 PM 40.0961 -92.6400 228° Southwest 435 501 34,000  Level Kansas City Center
Sat 07:14:34 PM 39.9908 -92.7411 216° Southwest 445 512 34,000  Level Kansas City Center
Sat 07:15:36 PM 39.8936 -92.8425 219° Southwest 449 517 34,000  Level Kansas City Center
Sat 07:16:37 PM 39.7972 -92.9433 219° Southwest 448 516 34,000  Level Kansas City Center
Sat 07:17:38 PM 39.7003 -93.0450 219° Southwest 449 517 34,000  Level Kansas City Center
Sat 07:18:40 PM 39.6036 -93.1442 218° Southwest 448 516 34,000  Level Kansas City Center
Sat 07:19:41 PM 39.4861 -93.2639 218° Southwest 450 518 34,000  Level Kansas City Center
Sat 07:20:43 PM 39.3878 -93.3636 218° Southwest 452 520 34,000  Level Kansas City Center
Sat 07:21:44 PM 39.2914 -93.4647 219° Southwest 450 518 34,000  Level Kansas City Center
Sat 07:22:46 PM 39.1850 -93.5731 218° Southwest 452 520 34,000  Level Kansas City Center
Sat 07:23:47 PM 39.0914 -93.6689 218° Southwest 451 519 34,000  Level Kansas City Center
Sat 07:24:49 PM 38.9983 -93.7636 218° Southwest 446 513 34,000  Level Kansas City Center
Sat 07:25:50 PM 38.8897 -93.8736 218° Southwest 445 512 34,000  Level Kansas City Center
Sat 07:26:51 PM 38.7972 -93.9681 219° Southwest 443 510 34,000  Level Kansas City Center
Sat 07:27:53 PM 38.6886 -94.0772 218° Southwest 442 509 34,000  Level Kansas City Center
Sat 07:28:54 PM 38.5956 -94.1689 218° Southwest 440 506 34,000  Level Kansas City Center
Sat 07:29:56 PM 38.5031 -94.2606 218° Southwest 440 506 34,000  Level Kansas City Center
Sat 07:30:57 PM 38.3950 -94.3661 217° Southwest 438 504 34,000  Level Kansas City Center
Sat 07:31:59 PM 38.3017 -94.4578 218° Southwest 440 506 34,000  Level Kansas City Center
Sat 07:33:00 PM 38.1833 -94.5467 211° Southwest 443 510 34,000  Level Kansas City Center
Sat 07:34:01 PM 38.0778 -94.6114 206° Southwest 443 510 34,000  Level Kansas City Center
Sat 07:35:03 PM 37.9711 -94.6797 207° Southwest 444 511 34,000  Level Kansas City Center
Sat 07:36:04 PM 37.8472 -94.7592 207° Southwest 446 513 34,000  Level Kansas City Center
Sat 07:37:06 PM 37.7406 -94.8283 207° Southwest 447 514 34,000  Level Kansas City Center
Sat 07:38:07 PM 37.6242 -94.9006 206° Southwest 447 514 34,000  Level Kansas City Center
Sat 07:39:09 PM 37.5128 -94.9711 207° Southwest 447 514 34,000  Level Kansas City Center
Sat 07:40:10 PM 37.3992 -95.0417 206° Southwest 452 520 34,000  Level Kansas City Center
Sat 07:41:11 PM 37.2892 -95.1111 207° Southwest 446 513 34,000  Level Kansas City Center
Sat 07:42:13 PM 37.1783 -95.1806 207° Southwest 444 511 34,000  Level Kansas City Center
Sat 07:43:14 PM 37.0675 -95.2494 206° Southwest 443 510 34,000  Level Kansas City Center
Sat 07:44:16 PM 36.9353 -95.3317 206° Southwest 442 509 34,000  Level Kansas City Center
Sat 07:45:17 PM 36.8256 -95.3994 206° Southwest 441 507 34,000  Level Kansas City Center
Sat 07:46:18 PM 36.7164 -95.4678 207° Southwest 441 507 34,000  Level Kansas City Center
Sat 07:47:20 PM 36.6086 -95.5347 207° Southwest 438 504 34,000  Level Kansas City Center
Sat 07:48:21 PM 36.4969 -95.6044 207° Southwest 440 506 34,000  Level Kansas City Center
Sat 07:49:23 PM 36.3856 -95.6706 206° Southwest 443 510 34,000  Level Kansas City Center
Sat 07:50:24 PM 36.2756 -95.7378 206° Southwest 441 507 34,000 49 Level Kansas City Center
Sat 07:51:26 PM 36.1442 -95.7700 191° South 442 509 34,100  Climbing Kansas City Center
Sat 07:52:27 PM 36.0225 -95.7275 164° South 456 525 34,000 -49 Descending Kansas City Center
Sat 07:53:29 PM 35.9006 -95.6883 165° South 453 521 34,000  Level Kansas City Center
Sat 07:54:30 PM 35.7794 -95.6483 165° South 452 520 34,000  Level Kansas City Center
Sat 07:55:32 PM 35.6575 -95.6089 165° South 452 520 34,000 -439 Level Kansas City Center
Sat 07:56:33 PM 35.5347 -95.5678 165° South 456 525 33,100 -488 Descending Kansas City Center
Sat 07:57:35 PM 35.4103 -95.5272 165° South 459 528 33,000 -49 Descending Kansas City Center
Sat 07:58:36 PM 35.2625 -95.4814 166° South 457 526 33,000  Level Kansas City Center
Sat 07:59:38 PM 35.1417 -95.4447 166° South 450 518 33,000  Level Kansas City Center
Sat 08:00:42 PM 35.0233 -95.4131 168° South 454 522 33,000  Level Fort Worth Center
Sat 08:01:42 PM 34.9039 -95.3781 166° South 454 522 33,000  Level Fort Worth Center
Sat 08:02:43 PM 34.7822 -95.3431 167° South 454 522 33,000  Level Fort Worth Center
Sat 08:03:42 PM 34.6586 -95.3131 169° South 454 522 33,000  Level Fort Worth Center
Sat 08:04:42 PM 34.5511 -95.3739 205° Southwest 387 445 33,000  Level Fort Worth Center
Sat 08:05:42 PM 34.4606 -95.4489 214° Southwest 380 437 33,000 -200 Level Fort Worth Center
Sat 08:06:42 PM 34.3719 -95.5289 217° Southwest 393 452 32,600 -800 Descending Fort Worth Center
Sat 08:07:42 PM 34.2794 -95.6064 215° Southwest 398 458 31,400 -1,339 Descending Fort Worth Center
Sat 08:08:43 PM 34.1886 -95.6836 215° Southwest 403 464 29,900 -1,500 Descending Fort Worth Center
Sat 08:09:42 PM 34.0978 -95.7606 215° Southwest 403 464 28,400 -1,600 Descending Fort Worth Center
Sat 08:10:43 PM 34.0111 -95.8350 215° Southwest 398 458 26,700 -1,900 Descending Fort Worth Center
Sat 08:11:42 PM 33.9161 -95.9117 214° Southwest 405 466 24,600 -1,412 Descending Fort Worth Center
Sat 08:12:42 PM 33.8294 -95.9958 219° Southwest 404 465 23,900 -1,150 Descending Fort Worth Center
Sat 08:13:42 PM 33.7425 -96.0619 212° Southwest 404 465 22,300 -1,835 Descending Fort Worth Center
Sat 08:14:43 PM 33.6431 -96.1433 214° Southwest 404 465 20,200 -2,000 Descending Fort Worth Center
Sat 08:15:42 PM 33.5583 -96.2144 215° Southwest 404 465 18,300 -1,765 Descending Fort Worth Center
Sat 08:16:42 PM 33.4756 -96.3078 223° Southwest 385 443 16,700 -1,150 Descending Fort Worth Center
Sat 08:17:42 PM 33.4156 -96.3781 224° Southwest 350 403 16,000 -942 Descending Fort Worth Center
Sat 08:18:43 PM 33.3453 -96.4636 225° Southwest 328 377 14,800 -1,400 Descending Fort Worth Center
Sat 08:19:42 PM 33.2853 -96.5364 225° Southwest 328 377 13,200 -1,815 Descending Fort Worth Center
Sat 08:20:42 PM 33.2150 -96.6164 224° Southwest 339 390 11,200 -1,100 Descending Fort Worth Center
Sat 08:21:42 PM 33.1425 -96.7039 225° Southwest 344 396 11,000 -99 Descending Fort Worth Center
Sat 08:22:43 PM 33.0822 -96.7761 225° Southwest 344 396 11,000  Level Fort Worth Center
Sat 08:23:05 PM 33.0500 -96.8167 227° Southwest 315 362 11,000  Level Dallas / Fort Worth TRACON
Sat 08:24:05 PM 33.0000 -96.8667 220° Southwest 240 276 11,000 -347 Level Dallas / Fort Worth TRACON
Sat 08:25:06 PM 32.9500 -96.9000 209° Southwest 250 288 10,300 -1,177 Descending Dallas / Fort Worth TRACON
Sat 08:26:43 PM 32.8303 -96.9067 183° South 244 281 7,900 -1,474 Descending Fort Worth Center
Sat 08:27:00 PM 32.8167 -96.9000 158° South 254 292 7,500 -1,792 Descending Dallas / Fort Worth TRACON
Sat 08:28:00 PM 32.7500 -96.9000 180° South 243 280 5,600 -1,950 Descending Dallas / Fort Worth TRACON
Sat 08:29:00 PM 32.7000 -96.9333 209° Southwest 235 270 3,600 -1,368 Descending Dallas / Fort Worth TRACON
Sat 08:29:54 PM 32.7167 -97.0000 287° West 219 252 3,000 -347 Descending Dallas / Fort Worth TRACON
Sat 08:31:01 PM 32.7667 -97.0333 331° Northwest 215 247 2,900 -90 Descending Dallas / Fort Worth TRACON

Login

Don't have an account? Register now (free) for customized features, flight alerts, and more!